createdAt,value
2022-12-31T00:01:00.238Z,49734.97
2022-12-31T00:03:27.258Z,49752.91
2022-12-31T00:05:54.121Z,49729.00
2022-12-31T00:08:20.851Z,49762.88
2022-12-31T00:10:47.661Z,49742.94
2022-12-31T00:13:14.895Z,49762.88
2022-12-31T00:15:43.038Z,49740.97
2022-12-31T00:18:11.530Z,49756.91
2022-12-31T00:20:42.037Z,49734.97
2022-12-31T00:23:10.546Z,49794.78
2022-12-31T00:25:37.907Z,49731.00
2022-12-31T00:28:05.550Z,49762.88
2022-12-31T00:30:32.420Z,49782.81
2022-12-31T00:32:59.308Z,49758.91
2022-12-31T00:35:26.786Z,49796.78
2022-12-31T00:37:53.489Z,49736.97
2022-12-31T00:40:20.386Z,49762.88
2022-12-31T00:42:47.135Z,49758.91
2022-12-31T00:45:13.913Z,49778.84
2022-12-31T00:47:40.620Z,49790.81
2022-12-31T00:50:07.734Z,49746.94
2022-12-31T00:52:34.477Z,49762.88
2022-12-31T00:55:01.229Z,49750.94
2022-12-31T00:57:27.971Z,49790.81
2022-12-31T00:59:54.662Z,49770.88
2022-12-31T01:02:21.621Z,49756.91
2022-12-31T01:04:48.568Z,49770.88
2022-12-31T01:07:15.276Z,49758.91
2022-12-31T01:09:42.158Z,49782.81
2022-12-31T01:12:08.963Z,49742.94
2022-12-31T01:14:35.760Z,49754.91
2022-12-31T01:17:02.500Z,49774.84
2022-12-31T01:19:29.863Z,49752.91
2022-12-31T01:21:57.265Z,49790.81
2022-12-31T01:24:24.449Z,49762.88
2022-12-31T01:26:51.773Z,49812.72
2022-12-31T01:29:18.647Z,49766.88
2022-12-31T01:31:45.509Z,49750.94
2022-12-31T01:34:12.379Z,49772.84
2022-12-31T01:36:39.425Z,49798.78
2022-12-31T01:39:08.169Z,49782.81
2022-12-31T01:41:40.977Z,49770.88
2022-12-31T01:44:13.805Z,49818.72
2022-12-31T01:46:44.939Z,49742.94
2022-12-31T01:49:38.859Z,49802.75
2022-12-31T01:52:19.555Z,49802.75
2022-12-31T01:54:59.647Z,49760.91
2022-12-31T01:57:27.373Z,49754.91
2022-12-31T01:59:56.585Z,49766.88
2022-12-31T02:02:23.775Z,49772.84
2022-12-31T02:04:54.584Z,49794.78
2022-12-31T02:07:22.707Z,49796.78
2022-12-31T02:09:49.562Z,49770.88
2022-12-31T02:12:16.335Z,49814.72
2022-12-31T02:14:46.763Z,49770.88
2022-12-31T02:17:16.505Z,49788.81
2022-12-31T02:20:32.816Z,49806.75
2022-12-31T02:23:21.087Z,49796.78
2022-12-31T02:26:06.695Z,49798.78
2022-12-31T02:28:36.215Z,49738.97
2022-12-31T02:31:43.442Z,49832.66
2022-12-31T02:34:13.719Z,49780.84
2022-12-31T02:36:44.432Z,49824.69
2022-12-31T02:39:13.821Z,49776.84
2022-12-31T02:41:52.553Z,49782.81
2022-12-31T02:44:28.812Z,49800.78
2022-12-31T02:47:24.106Z,49776.84
2022-12-31T02:50:21.723Z,49814.72
2022-12-31T02:53:01.136Z,49774.84
2022-12-31T02:55:42.011Z,49820.69
2022-12-31T02:58:14.954Z,49818.72
2022-12-31T03:01:10.132Z,49812.72
2022-12-31T03:03:38.220Z,49800.78
2022-12-31T03:06:07.840Z,49756.91
2022-12-31T03:08:54.749Z,49788.81
2022-12-31T03:11:40.346Z,49782.81
2022-12-31T03:14:07.080Z,49804.75
2022-12-31T03:16:35.053Z,49776.84
2022-12-31T03:19:20.585Z,49764.88
2022-12-31T03:22:05.785Z,49758.91
2022-12-31T03:24:51.093Z,49790.81
2022-12-31T03:27:17.805Z,49806.75
2022-12-31T03:29:44.575Z,49788.81
2022-12-31T03:32:11.309Z,49778.84
2022-12-31T03:34:38.007Z,49766.88
2022-12-31T03:37:04.721Z,49772.84
2022-12-31T03:39:31.442Z,49752.91
2022-12-31T03:41:58.546Z,49766.88
2022-12-31T03:44:25.283Z,49762.88
2022-12-31T03:46:52.012Z,49790.81
2022-12-31T03:49:18.711Z,49766.88
2022-12-31T03:51:45.414Z,49766.88
2022-12-31T03:54:12.109Z,49768.88
2022-12-31T03:56:38.832Z,49780.84
2022-12-31T03:59:05.537Z,49762.88
2022-12-31T04:01:32.640Z,49740.97
2022-12-31T04:03:59.605Z,49727.00
2022-12-31T04:06:26.310Z,49778.84
2022-12-31T04:08:53.059Z,49762.88
2022-12-31T04:11:21.108Z,49786.81
2022-12-31T04:13:48.061Z,49772.84
2022-12-31T04:16:14.827Z,49697.09
2022-12-31T04:18:41.594Z,49766.88
2022-12-31T04:21:08.290Z,49746.94
2022-12-31T04:23:35.046Z,49774.84
2022-12-31T04:26:01.947Z,49764.88
2022-12-31T04:28:28.673Z,49766.88
2022-12-31T04:30:55.411Z,49770.88
2022-12-31T04:33:22.124Z,49760.91
2022-12-31T04:35:48.846Z,49762.88
2022-12-31T04:38:15.578Z,49758.91
2022-12-31T04:41:00.990Z,49744.94
2022-12-31T04:43:27.948Z,49725.00
2022-12-31T04:45:54.723Z,49754.91
2022-12-31T04:48:21.487Z,49764.88
2022-12-31T04:50:48.248Z,49738.97
2022-12-31T04:53:14.928Z,49750.94
2022-12-31T04:55:41.659Z,49756.91
2022-12-31T04:58:08.379Z,49752.91
2022-12-31T05:00:35.084Z,49715.03
2022-12-31T05:03:01.849Z,49721.03
2022-12-31T05:05:28.592Z,49756.91
2022-12-31T05:07:55.345Z,49746.94
2022-12-31T05:10:22.066Z,49725.00
2022-12-31T05:12:48.790Z,49770.88
2022-12-31T05:15:15.527Z,49733.00
2022-12-31T05:17:42.218Z,49750.94
2022-12-31T05:20:09.292Z,49734.97
2022-12-31T05:22:35.978Z,49770.88
2022-12-31T05:25:02.848Z,49731.00
2022-12-31T05:27:33.293Z,49768.88
2022-12-31T05:30:00.112Z,49756.91
2022-12-31T05:32:26.942Z,49746.94
2022-12-31T05:34:53.699Z,49762.88
2022-12-31T05:37:20.370Z,49762.88
2022-12-31T05:39:47.121Z,49742.94
2022-12-31T05:42:13.814Z,49756.91
2022-12-31T05:44:40.516Z,49738.97
2022-12-31T05:47:07.242Z,49719.03
2022-12-31T05:49:34.075Z,49750.94
2022-12-31T05:52:01.148Z,49723.03
2022-12-31T05:54:27.856Z,49727.00
2022-12-31T05:56:54.654Z,49754.91
2022-12-31T05:59:21.556Z,49707.06
2022-12-31T06:01:48.328Z,49703.09
2022-12-31T06:04:15.073Z,49703.09
2022-12-31T06:06:41.796Z,49760.91
2022-12-31T06:09:08.781Z,49707.06
2022-12-31T06:11:35.705Z,49713.06
2022-12-31T06:14:03.517Z,49738.97
2022-12-31T06:16:30.230Z,49742.94
2022-12-31T06:18:57.053Z,49725.00
2022-12-31T06:21:23.830Z,49748.94
2022-12-31T06:23:50.561Z,49713.06
2022-12-31T06:26:17.476Z,49760.91
2022-12-31T06:28:44.221Z,49719.03
2022-12-31T06:31:13.617Z,49750.94
2022-12-31T06:33:41.496Z,49752.91
2022-12-31T06:36:09.352Z,49709.06
2022-12-31T06:38:38.523Z,49723.03
2022-12-31T06:41:10.206Z,49683.16
2022-12-31T06:43:38.358Z,49727.00
2022-12-31T06:46:07.764Z,49711.06
2022-12-31T06:48:35.250Z,49731.00
2022-12-31T06:51:08.560Z,49746.94
2022-12-31T06:53:37.452Z,49752.91
2022-12-31T06:56:08.538Z,49707.06
2022-12-31T06:58:35.768Z,49719.03
2022-12-31T07:01:14.608Z,49679.16
2022-12-31T07:03:52.644Z,49752.91
2022-12-31T07:06:44.132Z,49731.00
2022-12-31T07:09:18.098Z,49703.09
2022-12-31T07:11:53.837Z,49742.94
2022-12-31T07:14:50.087Z,49738.97
2022-12-31T07:17:41.989Z,49713.06
2022-12-31T07:20:17.829Z,49697.09
2022-12-31T07:22:45.846Z,49746.94
2022-12-31T07:25:17.358Z,49717.03
2022-12-31T07:27:46.981Z,49687.13
2022-12-31T07:30:35.660Z,49725.00
2022-12-31T07:33:31.597Z,49746.94
2022-12-31T07:36:13.230Z,49715.03
2022-12-31T07:38:53.617Z,49744.94
2022-12-31T07:41:52.410Z,49736.97
2022-12-31T07:44:29.160Z,49734.97
2022-12-31T07:46:58.839Z,49744.94
2022-12-31T07:49:27.759Z,49762.88
2022-12-31T07:51:54.939Z,49733.00
2022-12-31T07:54:21.989Z,49703.09
2022-12-31T07:56:50.133Z,49717.03
2022-12-31T07:59:48.755Z,49770.88
2022-12-31T08:02:18.364Z,49723.03
2022-12-31T08:04:53.954Z,49754.91
2022-12-31T08:07:37.455Z,49750.94
2022-12-31T08:10:10.161Z,49754.91
2022-12-31T08:12:41.483Z,49719.03
2022-12-31T08:15:16.026Z,49705.06
2022-12-31T08:17:43.769Z,49727.00
2022-12-31T08:20:17.531Z,49733.00
2022-12-31T08:23:05.774Z,49734.97
2022-12-31T08:25:43.100Z,49693.13
2022-12-31T08:28:18.152Z,49742.94
2022-12-31T08:31:01.735Z,49723.03
2022-12-31T08:33:34.458Z,49727.00
2022-12-31T08:36:27.275Z,49721.03
2022-12-31T08:39:21.074Z,49727.00
2022-12-31T08:41:54.195Z,49711.06
2022-12-31T08:44:32.949Z,49736.97
2022-12-31T08:47:02.670Z,49768.88
2022-12-31T08:49:32.168Z,49701.09
2022-12-31T08:52:00.497Z,49742.94
2022-12-31T08:54:27.757Z,49687.13
2022-12-31T08:57:05.694Z,49705.06
2022-12-31T09:00:11.141Z,49711.06
2022-12-31T09:02:48.377Z,49703.09
2022-12-31T09:05:22.167Z,49697.09
2022-12-31T09:08:24.131Z,49711.06
2022-12-31T09:10:58.859Z,49746.94
2022-12-31T09:13:47.315Z,49723.03
2022-12-31T09:16:19.230Z,49711.06
2022-12-31T09:18:46.046Z,49691.13
2022-12-31T09:21:14.751Z,49713.06
2022-12-31T09:23:43.334Z,49727.00
2022-12-31T09:26:34.293Z,49729.00
2022-12-31T09:29:33.315Z,49709.06
2022-12-31T09:32:34.567Z,49693.13
2022-12-31T09:35:30.609Z,49719.03
2022-12-31T09:38:13.433Z,49727.00
2022-12-31T09:40:58.572Z,49734.97
2022-12-31T09:43:45.219Z,49744.94
2022-12-31T09:46:11.883Z,49691.13
2022-12-31T09:48:57.231Z,49729.00
2022-12-31T09:51:25.628Z,49746.94
2022-12-31T09:54:20.304Z,49711.06
2022-12-31T09:56:59.210Z,49754.91
2022-12-31T10:00:01.660Z,49756.91
2022-12-31T10:03:05.451Z,49703.09
2022-12-31T10:05:50.482Z,49725.00
2022-12-31T10:08:44.595Z,49742.94
2022-12-31T10:11:11.257Z,49705.06
2022-12-31T10:14:02.695Z,49736.97
2022-12-31T10:16:44.142Z,49715.03
2022-12-31T10:19:31.822Z,49707.06
2022-12-31T10:21:58.480Z,49715.03
2022-12-31T10:24:41.604Z,49731.00
2022-12-31T10:27:33.968Z,49677.16
2022-12-31T10:30:22.309Z,49707.06
2022-12-31T10:32:55.291Z,49711.06
2022-12-31T10:35:40.367Z,49707.06
2022-12-31T10:38:25.513Z,49701.09
2022-12-31T10:41:29.517Z,49721.03
2022-12-31T10:44:01.939Z,49681.16
2022-12-31T10:46:44.109Z,49731.00
2022-12-31T10:49:19.749Z,49744.94
2022-12-31T10:51:58.321Z,49697.09
2022-12-31T10:54:27.882Z,49683.16
2022-12-31T10:57:07.223Z,49665.22
2022-12-31T10:59:40.086Z,49663.22
2022-12-31T11:02:22.320Z,49707.06
2022-12-31T11:05:07.888Z,49719.03
2022-12-31T11:07:40.241Z,49736.97
2022-12-31T11:10:20.197Z,49715.03
2022-12-31T11:13:00.875Z,49723.03
2022-12-31T11:16:06.680Z,49715.03
2022-12-31T11:18:58.311Z,49687.13
2022-12-31T11:21:41.342Z,49693.13
2022-12-31T11:24:34.933Z,49663.22
2022-12-31T11:27:13.053Z,49695.09
2022-12-31T11:30:03.954Z,49719.03
2022-12-31T11:33:00.900Z,49719.03
2022-12-31T11:35:49.151Z,49703.09
2022-12-31T11:38:25.937Z,49731.00
2022-12-31T11:41:29.231Z,49723.03
2022-12-31T11:44:10.591Z,49746.94
2022-12-31T11:47:07.446Z,49705.06
2022-12-31T11:49:52.528Z,49719.03
2022-12-31T11:52:48.909Z,49723.03
2022-12-31T11:55:50.817Z,49705.06
2022-12-31T11:58:20.742Z,49711.06
2022-12-31T12:01:07.545Z,49681.16
2022-12-31T12:03:38.654Z,49731.00
2022-12-31T12:06:05.896Z,49679.16
2022-12-31T12:08:33.712Z,49675.19
2022-12-31T12:11:06.696Z,49723.03
2022-12-31T12:13:33.592Z,49713.06
2022-12-31T12:16:03.325Z,49721.03
2022-12-31T12:18:36.107Z,49750.94
2022-12-31T12:21:08.335Z,49697.09
2022-12-31T12:23:35.160Z,49699.09
2022-12-31T12:26:02.353Z,49691.13
2022-12-31T12:28:31.610Z,49709.06
2022-12-31T12:31:03.353Z,49707.06
2022-12-31T12:33:41.645Z,49731.00
2022-12-31T12:36:14.537Z,49705.06
2022-12-31T12:38:42.778Z,49683.16
2022-12-31T12:41:26.483Z,49689.13
2022-12-31T12:44:15.398Z,49695.09
2022-12-31T12:46:48.757Z,49659.22
2022-12-31T12:49:41.420Z,49671.19
2022-12-31T12:52:45.819Z,49707.06
2022-12-31T12:55:17.380Z,49719.03
2022-12-31T12:57:53.178Z,49695.09
2022-12-31T13:00:20.015Z,49667.19
2022-12-31T13:03:24.621Z,49679.16
2022-12-31T13:06:13.146Z,49711.06
2022-12-31T13:08:48.905Z,49701.09
2022-12-31T13:11:35.162Z,49727.00
2022-12-31T13:14:17.148Z,49665.22
2022-12-31T13:17:07.325Z,49709.06
2022-12-31T13:19:33.979Z,49673.19
2022-12-31T13:22:22.205Z,49689.13
2022-12-31T13:24:56.870Z,49703.09
2022-12-31T13:27:35.373Z,49679.16
2022-12-31T13:30:18.328Z,49673.19
2022-12-31T13:32:50.269Z,49703.09
2022-12-31T13:35:47.922Z,49683.16
2022-12-31T13:38:27.983Z,49687.13
2022-12-31T13:40:57.770Z,49738.97
2022-12-31T13:43:56.576Z,49701.09
2022-12-31T13:46:26.295Z,49689.13
2022-12-31T13:48:56.790Z,49671.19
2022-12-31T13:51:26.434Z,49661.22
2022-12-31T13:54:10.708Z,49691.13
2022-12-31T13:56:40.115Z,49663.22
2022-12-31T13:59:27.970Z,49701.09
2022-12-31T14:02:04.613Z,49683.16
2022-12-31T14:04:41.711Z,49679.16
2022-12-31T14:07:20.500Z,49683.16
2022-12-31T14:09:47.308Z,49695.09
2022-12-31T14:12:13.929Z,49719.03
2022-12-31T14:15:07.227Z,49691.13
2022-12-31T14:17:45.760Z,49659.22
2022-12-31T14:20:32.743Z,49711.06
2022-12-31T14:23:36.999Z,49659.22
2022-12-31T14:26:27.720Z,49707.06
2022-12-31T14:29:19.215Z,49683.16
2022-12-31T14:31:49.140Z,49711.06
2022-12-31T14:34:18.875Z,49695.09
2022-12-31T14:37:13.246Z,49671.19
2022-12-31T14:40:01.668Z,49647.25
2022-12-31T14:42:52.733Z,49719.03
2022-12-31T14:45:22.287Z,49685.13
2022-12-31T14:47:52.063Z,49687.13
2022-12-31T14:51:03.639Z,49683.16
2022-12-31T14:53:29.127Z,49681.16
2022-12-31T14:56:23.067Z,49701.09
2022-12-31T14:59:03.880Z,49707.06
2022-12-31T15:01:30.717Z,49713.06
2022-12-31T15:03:58.419Z,49683.16
2022-12-31T15:06:43.633Z,49695.09
2022-12-31T15:09:34.616Z,49723.03
2022-12-31T15:12:19.165Z,49709.06
2022-12-31T15:14:45.827Z,49707.06
2022-12-31T15:17:48.761Z,49667.19
2022-12-31T15:20:52.213Z,49673.19
2022-12-31T15:23:40.251Z,49709.06
2022-12-31T15:26:08.489Z,49715.03
2022-12-31T15:28:37.795Z,49685.13
2022-12-31T15:31:17.419Z,49665.22
2022-12-31T15:34:03.423Z,49731.00
2022-12-31T15:36:38.561Z,49691.13
2022-12-31T15:39:25.521Z,49677.16
2022-12-31T15:42:36.084Z,49685.13
2022-12-31T15:45:02.713Z,49677.16
2022-12-31T15:47:46.133Z,49667.19
2022-12-31T15:50:18.105Z,49703.09
2022-12-31T15:52:55.795Z,49673.19
2022-12-31T15:55:44.111Z,49677.16
2022-12-31T15:58:13.909Z,49673.19
2022-12-31T16:00:51.170Z,49679.16
2022-12-31T16:03:27.080Z,49691.13
2022-12-31T16:06:00.412Z,49703.09
2022-12-31T16:08:34.209Z,49663.22
2022-12-31T16:11:04.919Z,49691.13
2022-12-31T16:13:35.122Z,49683.16
2022-12-31T16:16:05.368Z,49683.16
2022-12-31T16:18:44.029Z,49693.13
2022-12-31T16:21:34.610Z,49687.13
2022-12-31T16:24:26.216Z,49673.19
2022-12-31T16:26:56.252Z,49685.13
2022-12-31T16:29:24.179Z,49693.13
2022-12-31T16:31:53.114Z,49727.00
2022-12-31T16:34:22.634Z,49683.16
2022-12-31T16:36:56.666Z,49679.16
2022-12-31T16:39:30.384Z,49677.16
2022-12-31T16:42:20.135Z,49653.25
2022-12-31T16:44:51.557Z,49693.13
2022-12-31T16:47:31.756Z,49683.16
2022-12-31T16:50:07.992Z,49703.09
2022-12-31T16:52:40.930Z,49687.13
2022-12-31T16:55:18.321Z,49645.28
2022-12-31T16:57:49.076Z,49663.22
2022-12-31T17:00:18.313Z,49667.19
2022-12-31T17:02:54.075Z,49693.13
2022-12-31T17:05:23.614Z,49653.25
2022-12-31T17:07:50.896Z,49659.22
2022-12-31T17:10:24.529Z,49671.19
2022-12-31T17:15:45.047Z,49665.22
2022-12-31T17:18:21.005Z,49659.22
2022-12-31T17:20:49.742Z,49665.22
2022-12-31T17:23:31.550Z,49687.13
2022-12-31T17:26:20.661Z,49675.19
2022-12-31T17:28:50.001Z,49651.25
2022-12-31T17:31:36.549Z,49625.34
2022-12-31T17:34:19.801Z,49643.28
2022-12-31T17:37:04.058Z,49651.25
2022-12-31T17:39:46.261Z,49715.03
2022-12-31T17:42:15.165Z,49681.16
2022-12-31T17:44:44.538Z,49659.22
2022-12-31T17:47:14.123Z,49669.19
2022-12-31T17:49:45.067Z,49675.19
2022-12-31T17:52:14.101Z,49671.19
2022-12-31T17:54:41.261Z,49641.28
2022-12-31T17:57:27.741Z,49637.28
2022-12-31T17:59:54.647Z,49693.13
2022-12-31T18:02:21.506Z,49657.22
2022-12-31T18:04:48.298Z,49681.16
2022-12-31T18:07:15.029Z,49677.16
2022-12-31T18:09:41.797Z,49669.19
2022-12-31T18:12:13.976Z,49679.16
2022-12-31T18:14:42.536Z,49665.22
2022-12-31T18:17:15.314Z,49693.13
2022-12-31T18:22:29.848Z,49675.19
2022-12-31T18:24:56.539Z,49657.22
2022-12-31T18:27:23.263Z,49685.13
2022-12-31T18:29:50.075Z,49691.13
2022-12-31T18:32:25.263Z,49677.16
2022-12-31T18:34:52.459Z,49643.28
2022-12-31T18:37:22.327Z,49659.22
2022-12-31T18:39:49.173Z,49643.28
2022-12-31T18:42:18.685Z,49665.22
2022-12-31T18:44:46.476Z,49669.19
2022-12-31T18:47:14.170Z,49633.31
2022-12-31T18:49:41.052Z,49671.19
2022-12-31T18:52:14.213Z,49699.09
2022-12-31T18:54:41.151Z,49667.19
2022-12-31T18:57:09.120Z,49687.13
2022-12-31T18:59:35.857Z,49641.28
2022-12-31T19:02:02.721Z,49667.19
2022-12-31T19:04:29.699Z,49663.22
2022-12-31T19:07:01.402Z,49647.25
2022-12-31T19:09:45.102Z,49661.22
2022-12-31T19:12:13.850Z,49635.31
2022-12-31T19:14:40.638Z,49619.34
2022-12-31T19:19:33.114Z,49627.31
2022-12-31T19:22:00.136Z,49641.28
2022-12-31T19:24:27.970Z,49651.25
2022-12-31T19:26:55.158Z,49641.28
2022-12-31T19:29:27.721Z,49645.28
2022-12-31T19:31:54.785Z,49613.38
2022-12-31T19:34:22.226Z,49629.31
2022-12-31T19:36:49.064Z,49631.31
2022-12-31T19:39:21.416Z,49621.34
2022-12-31T19:41:56.435Z,49635.31
2022-12-31T19:44:25.693Z,49651.25
2022-12-31T19:46:52.460Z,49653.25
2022-12-31T19:49:19.168Z,49623.34
2022-12-31T19:51:45.880Z,49657.22
2022-12-31T19:54:13.793Z,49621.34
2022-12-31T19:56:40.391Z,49611.38
2022-12-31T19:59:09.587Z,49659.22
2022-12-31T20:01:36.422Z,49659.22
2022-12-31T20:04:03.483Z,49639.28
2022-12-31T20:06:30.210Z,49639.28
2022-12-31T20:08:56.981Z,49659.22
2022-12-31T20:11:25.003Z,49631.31
2022-12-31T20:13:53.949Z,49691.13
2022-12-31T20:16:24.026Z,49587.47
2022-12-31T20:18:50.930Z,49639.28
2022-12-31T20:21:23.773Z,49647.25
2022-12-31T20:23:52.128Z,49655.25
2022-12-31T20:26:20.160Z,49659.22
2022-12-31T20:28:47.145Z,49625.34
2022-12-31T20:31:16.826Z,49637.28
2022-12-31T20:33:44.475Z,49647.25
2022-12-31T20:36:13.932Z,49653.25
2022-12-31T20:38:40.942Z,49635.31
2022-12-31T20:41:19.418Z,49635.31
2022-12-31T20:43:46.586Z,49599.41
2022-12-31T20:46:16.487Z,49595.44
2022-12-31T20:48:44.395Z,49611.38
2022-12-31T20:51:11.550Z,49631.31
2022-12-31T20:53:38.548Z,49651.25
2022-12-31T20:56:06.711Z,49649.25
2022-12-31T20:58:34.280Z,49619.34
2022-12-31T21:01:01.574Z,49633.31
2022-12-31T21:04:03.870Z,49643.28
2022-12-31T21:06:15.752Z,49651.25
2022-12-31T21:08:43.552Z,49651.25
2022-12-31T21:11:29.389Z,49629.31
2022-12-31T21:13:57.981Z,49637.28
2022-12-31T21:16:25.843Z,49633.31
2022-12-31T21:18:52.743Z,49645.28
2022-12-31T21:21:19.675Z,49637.28
2022-12-31T21:23:46.707Z,49625.34
2022-12-31T21:26:14.929Z,49613.38
2022-12-31T21:28:41.931Z,49607.41
2022-12-31T21:31:11.189Z,49625.34
2022-12-31T21:33:38.086Z,49621.34
2022-12-31T21:36:05.308Z,49609.38
2022-12-31T21:38:32.235Z,49633.31
2022-12-31T21:41:06.804Z,49627.31
2022-12-31T21:43:34.073Z,49623.34
2022-12-31T21:46:07.700Z,49633.31
2022-12-31T21:48:34.461Z,49635.31
2022-12-31T21:51:10.197Z,49633.31
2022-12-31T21:53:37.617Z,49613.38
2022-12-31T21:56:08.527Z,49655.25
2022-12-31T21:58:40.571Z,49631.31
2022-12-31T22:01:29.233Z,49643.28
2022-12-31T22:03:56.026Z,49659.22
2022-12-31T22:06:24.202Z,49635.31
2022-12-31T22:08:53.485Z,49645.28
2022-12-31T22:11:23.276Z,49613.38
2022-12-31T22:13:50.957Z,49623.34
2022-12-31T22:16:20.274Z,49645.28
2022-12-31T22:18:48.078Z,49635.31
2022-12-31T22:21:19.957Z,49667.19
2022-12-31T22:23:52.462Z,49657.22
2022-12-31T22:26:22.006Z,49613.38
2022-12-31T22:28:49.039Z,49627.31
2022-12-31T22:31:18.775Z,49609.38
2022-12-31T22:33:45.989Z,49603.41
2022-12-31T22:36:15.799Z,49633.31
2022-12-31T22:38:42.867Z,49623.34
2022-12-31T22:41:15.392Z,49611.38
2022-12-31T22:43:44.936Z,49647.25
2022-12-31T22:46:25.147Z,49611.38
2022-12-31T22:48:54.224Z,49619.34
2022-12-31T22:51:21.015Z,49643.28
2022-12-31T22:53:47.911Z,49597.44
2022-12-31T22:56:17.196Z,49609.38
2022-12-31T22:58:44.854Z,49627.31
2022-12-31T23:01:18.145Z,49621.34
2022-12-31T23:03:46.712Z,49603.41
2022-12-31T23:06:14.091Z,49621.34
2022-12-31T23:08:41.626Z,49627.31
2022-12-31T23:11:11.472Z,49649.25
2022-12-31T23:14:01.652Z,49589.44
2022-12-31T23:16:48.368Z,49623.34
2022-12-31T23:19:34.588Z,49643.28
2022-12-31T23:22:20.041Z,49643.28
2022-12-31T23:24:46.872Z,49615.38
2022-12-31T23:27:15.826Z,49615.38
2022-12-31T23:29:47.250Z,49623.34
2022-12-31T23:32:16.426Z,49619.34
2022-12-31T23:34:44.643Z,49599.41
2022-12-31T23:37:13.047Z,49591.44
2022-12-31T23:39:40.188Z,49625.34
2022-12-31T23:42:07.027Z,49607.41
2022-12-31T23:44:33.763Z,49615.38
2022-12-31T23:47:00.582Z,49621.34
2022-12-31T23:49:27.342Z,49655.25
2022-12-31T23:51:54.058Z,49597.44
2022-12-31T23:54:20.809Z,49631.31
2022-12-31T23:56:47.537Z,49597.44
2022-12-31T23:59:14.242Z,49593.44
